createdAt,value
2018-03-26T00:00:35.777Z,998.9
2018-03-26T00:01:37.173Z,998.9
2018-03-26T00:02:38.552Z,998.9
2018-03-26T00:03:39.942Z,998.9
2018-03-26T00:04:41.323Z,998.9
2018-03-26T00:05:42.717Z,999.0
2018-03-26T00:06:44.100Z,999.0
2018-03-26T00:07:45.485Z,998.9
2018-03-26T00:08:46.874Z,999.0
2018-03-26T00:09:48.259Z,999.0
2018-03-26T00:10:49.644Z,998.9
2018-03-26T00:11:51.032Z,999.0
2018-03-26T00:12:52.421Z,998.9
2018-03-26T00:13:53.809Z,999.0
2018-03-26T00:14:55.195Z,999.0
2018-03-26T00:15:56.583Z,999.0
2018-03-26T00:16:57.971Z,999.0
2018-03-26T00:17:59.407Z,999.0
2018-03-26T00:19:00.782Z,999.0
2018-03-26T00:20:02.171Z,999.0
2018-03-26T00:21:03.557Z,999.1
2018-03-26T00:22:04.944Z,999.1
2018-03-26T00:23:06.333Z,999.0
2018-03-26T00:24:07.726Z,999.0
2018-03-26T00:25:09.110Z,999.0
2018-03-26T00:26:10.500Z,999.0
2018-03-26T00:27:11.933Z,999.0
2018-03-26T00:28:13.279Z,999.0
2018-03-26T00:29:14.663Z,999.0
2018-03-26T00:30:16.052Z,999.0
2018-03-26T00:31:17.442Z,999.0
2018-03-26T00:32:18.831Z,999.0
2018-03-26T00:33:20.213Z,999.0
2018-03-26T00:34:21.605Z,999.0
2018-03-26T00:35:22.990Z,999.1
2018-03-26T00:36:24.383Z,999.1
2018-03-26T00:37:25.764Z,999.0
2018-03-26T00:38:27.144Z,999.0
2018-03-26T00:39:28.533Z,999.0
2018-03-26T00:40:29.921Z,999.1
2018-03-26T00:41:31.309Z,999.1
2018-03-26T00:42:32.693Z,999.1
2018-03-26T00:43:34.080Z,999.1
2018-03-26T00:44:35.468Z,999.1
2018-03-26T00:45:36.853Z,999.1
2018-03-26T00:46:38.244Z,999.0
2018-03-26T00:47:39.641Z,999.1
2018-03-26T00:48:41.032Z,999.1
2018-03-26T00:49:42.413Z,999.1
2018-03-26T00:50:43.799Z,999.1
2018-03-26T00:51:45.180Z,999.1
2018-03-26T00:52:46.567Z,999.1
2018-03-26T00:53:47.957Z,999.2
2018-03-26T00:54:49.349Z,999.2
2018-03-26T00:55:50.727Z,999.2
2018-03-26T00:56:52.248Z,999.2
2018-03-26T00:57:53.618Z,999.2
2018-03-26T00:58:55.001Z,999.2
2018-03-26T00:59:56.386Z,999.2
2018-03-26T01:00:57.773Z,999.2
2018-03-26T01:01:59.169Z,999.2
2018-03-26T01:03:00.555Z,999.2
2018-03-26T01:04:01.940Z,999.2
2018-03-26T01:05:03.337Z,999.2
2018-03-26T01:06:04.711Z,999.2
2018-03-26T01:07:06.186Z,999.2
2018-03-26T01:08:07.579Z,999.2
2018-03-26T01:09:08.966Z,999.2
2018-03-26T01:10:10.356Z,999.2
2018-03-26T01:11:11.740Z,999.2
2018-03-26T01:12:13.126Z,999.2
2018-03-26T01:13:14.511Z,999.2
2018-03-26T01:14:15.899Z,999.3
2018-03-26T01:15:17.286Z,999.2
2018-03-26T01:16:18.675Z,999.3
2018-03-26T01:17:20.074Z,999.3
2018-03-26T01:18:21.450Z,999.3
2018-03-26T01:19:22.831Z,999.3
2018-03-26T01:20:24.222Z,999.3
2018-03-26T01:21:25.607Z,999.3
2018-03-26T01:22:27.000Z,999.3
2018-03-26T01:23:28.388Z,999.3
2018-03-26T01:24:29.799Z,999.3
2018-03-26T01:25:31.182Z,999.3
2018-03-26T01:26:32.568Z,999.4
2018-03-26T01:27:33.954Z,999.4
2018-03-26T01:28:35.346Z,999.4
2018-03-26T01:29:36.731Z,999.4
2018-03-26T01:30:38.800Z,999.4
2018-03-26T01:31:40.182Z,999.4
2018-03-26T01:32:41.566Z,999.4
2018-03-26T01:33:42.949Z,999.5
2018-03-26T01:34:44.334Z,999.6
2018-03-26T01:35:45.718Z,999.5
2018-03-26T01:36:47.106Z,999.6
2018-03-26T01:37:48.495Z,999.5
2018-03-26T01:38:49.883Z,999.5
2018-03-26T01:39:51.271Z,999.5
2018-03-26T01:40:52.652Z,999.6
2018-03-26T01:41:54.055Z,999.6
2018-03-26T01:42:55.443Z,999.6
2018-03-26T01:43:56.830Z,999.6
2018-03-26T01:44:58.221Z,999.6
2018-03-26T01:45:59.604Z,999.7
2018-03-26T01:47:00.988Z,999.7
2018-03-26T01:48:02.405Z,999.7
2018-03-26T01:49:03.755Z,999.6
2018-03-26T01:50:05.141Z,999.7
2018-03-26T01:51:06.528Z,999.7
2018-03-26T01:52:07.916Z,999.7
2018-03-26T01:53:09.302Z,999.8
2018-03-26T01:54:10.688Z,999.8
2018-03-26T01:55:12.077Z,999.8
2018-03-26T01:56:13.462Z,999.8
2018-03-26T01:57:14.851Z,999.7
2018-03-26T01:58:16.244Z,999.7
2018-03-26T01:59:17.630Z,999.8
2018-03-26T02:00:19.025Z,999.8
2018-03-26T02:01:20.417Z,999.8
2018-03-26T02:02:21.796Z,999.8
2018-03-26T02:03:23.183Z,999.8
2018-03-26T02:04:24.581Z,999.8
2018-03-26T02:05:25.967Z,999.9
2018-03-26T02:06:27.354Z,999.9
2018-03-26T02:07:28.746Z,999.8
2018-03-26T02:08:30.127Z,999.9
2018-03-26T02:09:31.513Z,999.8
2018-03-26T02:10:32.902Z,999.8
2018-03-26T02:11:34.286Z,999.9
2018-03-26T02:12:35.673Z,999.9
2018-03-26T02:13:37.067Z,999.9
2018-03-26T02:14:38.448Z,999.8
2018-03-26T02:15:39.837Z,999.9
2018-03-26T02:16:41.218Z,1000.0
2018-03-26T02:17:42.605Z,1000.0
2018-03-26T02:18:43.994Z,1000.0
2018-03-26T02:19:45.381Z,1000.0
2018-03-26T02:20:46.772Z,999.9
2018-03-26T02:21:48.152Z,999.9
2018-03-26T02:22:49.539Z,1000.0
2018-03-26T02:23:50.922Z,1000.0
2018-03-26T02:24:52.309Z,1000.0
2018-03-26T02:25:53.695Z,1000.0
2018-03-26T02:26:55.084Z,1000.0
2018-03-26T02:27:56.469Z,1000.0
2018-03-26T02:28:57.859Z,1000.0
2018-03-26T02:29:59.248Z,1000.0
2018-03-26T02:31:00.635Z,1000.0
2018-03-26T02:32:02.018Z,1000.0
2018-03-26T02:33:03.404Z,1000.0
2018-03-26T02:34:04.793Z,1000.0
2018-03-26T02:35:06.185Z,1000.0
2018-03-26T02:36:07.572Z,999.9
2018-03-26T02:37:08.955Z,999.9
2018-03-26T02:38:10.339Z,999.9
2018-03-26T02:39:11.719Z,1000.0
2018-03-26T02:40:13.113Z,1000.0
2018-03-26T02:41:14.500Z,1000.0
2018-03-26T02:42:15.888Z,1000.0
2018-03-26T02:43:17.306Z,1000.1
2018-03-26T02:44:18.683Z,1000.0
2018-03-26T02:45:20.065Z,1000.1
2018-03-26T02:46:21.452Z,1000.0
2018-03-26T02:47:22.834Z,1000.1
2018-03-26T02:48:24.226Z,1000.0
2018-03-26T02:49:25.610Z,1000.0
2018-03-26T02:50:26.999Z,1000.0
2018-03-26T02:51:28.383Z,1000.0
2018-03-26T02:52:29.767Z,1000.0
2018-03-26T02:53:31.156Z,1000.0
2018-03-26T02:54:32.555Z,1000.0
2018-03-26T02:55:33.947Z,1000.0
2018-03-26T02:56:35.335Z,1000.0
2018-03-26T02:57:36.722Z,1000.0
2018-03-26T02:58:38.135Z,1000.0
2018-03-26T02:59:39.516Z,1000.0
2018-03-26T03:00:40.903Z,1000.0
2018-03-26T03:01:42.289Z,1000.0
2018-03-26T03:02:43.683Z,1000.0
2018-03-26T03:03:45.071Z,1000.0
2018-03-26T03:04:46.456Z,1000.0
2018-03-26T03:05:47.844Z,1000.0
2018-03-26T03:06:49.228Z,1000.1
2018-03-26T03:07:50.612Z,1000.1
2018-03-26T03:08:51.999Z,1000.0
2018-03-26T03:09:53.386Z,1000.1
2018-03-26T03:10:54.775Z,1000.1
2018-03-26T03:11:56.160Z,1000.2
2018-03-26T03:12:57.547Z,1000.2
2018-03-26T03:13:58.931Z,1000.2
2018-03-26T03:15:00.323Z,1000.2
2018-03-26T03:16:01.707Z,1000.3
2018-03-26T03:17:03.112Z,1000.2
2018-03-26T03:18:04.500Z,1000.3
2018-03-26T03:19:05.895Z,1000.2
2018-03-26T03:20:07.285Z,1000.3
2018-03-26T03:21:08.669Z,1000.3
2018-03-26T03:22:10.056Z,1000.3
2018-03-26T03:23:11.443Z,1000.3
2018-03-26T03:24:12.831Z,1000.3
2018-03-26T03:25:14.218Z,1000.3
2018-03-26T03:26:15.605Z,1000.3
2018-03-26T03:27:16.988Z,1000.3
2018-03-26T03:28:18.374Z,1000.3
2018-03-26T03:29:19.766Z,1000.3
2018-03-26T03:30:21.243Z,1000.3
2018-03-26T03:31:22.632Z,1000.3
2018-03-26T03:32:24.035Z,1000.3
2018-03-26T03:33:25.418Z,1000.3
2018-03-26T03:34:26.824Z,1000.3
2018-03-26T03:35:28.184Z,1000.3
2018-03-26T03:36:29.572Z,1000.3
2018-03-26T03:37:30.958Z,1000.4
2018-03-26T03:38:32.348Z,1000.4
2018-03-26T03:39:33.733Z,1000.4
2018-03-26T03:40:35.120Z,1000.4
2018-03-26T03:41:36.509Z,1000.4
2018-03-26T03:42:37.893Z,1000.4
2018-03-26T03:43:39.308Z,1000.4
2018-03-26T03:44:40.692Z,1000.4
2018-03-26T03:45:42.081Z,1000.4
2018-03-26T03:46:43.478Z,1000.4
2018-03-26T03:47:44.866Z,1000.4
2018-03-26T03:48:46.265Z,1000.4
2018-03-26T03:49:47.651Z,1000.4
2018-03-26T03:50:49.088Z,1000.4
2018-03-26T03:51:50.435Z,1000.4
2018-03-26T03:52:51.824Z,1000.5
2018-03-26T03:53:53.205Z,1000.5
2018-03-26T03:54:54.596Z,1000.5
2018-03-26T03:55:55.987Z,1000.5
2018-03-26T03:56:57.370Z,1000.5
2018-03-26T03:57:58.759Z,1000.5
2018-03-26T03:59:00.144Z,1000.5
2018-03-26T04:00:01.529Z,1000.6
2018-03-26T04:01:02.922Z,1000.6
2018-03-26T04:02:04.315Z,1000.6
2018-03-26T04:03:05.693Z,1000.6
2018-03-26T04:04:07.079Z,1000.6
2018-03-26T04:05:08.465Z,1000.5
2018-03-26T04:06:09.855Z,1000.6
2018-03-26T04:07:11.238Z,1000.6
2018-03-26T04:08:12.632Z,1000.6
2018-03-26T04:09:14.024Z,1000.6
2018-03-26T04:10:15.415Z,1000.6
2018-03-26T04:11:16.796Z,1000.6
2018-03-26T04:12:18.186Z,1000.6
2018-03-26T04:13:19.565Z,1000.6
2018-03-26T04:14:20.949Z,1000.6
2018-03-26T04:15:22.339Z,1000.7
2018-03-26T04:16:23.731Z,1000.6
2018-03-26T04:17:25.116Z,1000.6
2018-03-26T04:18:26.506Z,1000.7
2018-03-26T04:19:27.888Z,1000.6
2018-03-26T04:20:29.354Z,1000.7
2018-03-26T04:21:30.801Z,1000.7
2018-03-26T04:22:32.186Z,1000.7
2018-03-26T04:23:33.573Z,1000.7
2018-03-26T04:24:34.968Z,1000.7
2018-03-26T04:25:36.356Z,1000.7
2018-03-26T04:26:37.741Z,1000.7
2018-03-26T04:27:39.135Z,1000.7
2018-03-26T04:28:40.526Z,1000.7
2018-03-26T04:29:41.916Z,1000.7
2018-03-26T04:30:43.297Z,1000.7
2018-03-26T04:31:44.680Z,1000.7
2018-03-26T04:32:46.075Z,1000.7
2018-03-26T04:33:47.455Z,1000.7
2018-03-26T04:34:48.865Z,1000.7
2018-03-26T04:35:50.254Z,1000.7
2018-03-26T04:36:51.640Z,1000.8
2018-03-26T04:37:53.039Z,1000.8
2018-03-26T04:38:54.436Z,1000.8
2018-03-26T04:39:55.820Z,1000.8
2018-03-26T04:40:57.204Z,1000.8
2018-03-26T04:41:58.595Z,1000.8
2018-03-26T04:42:59.979Z,1000.7
2018-03-26T04:44:01.368Z,1000.8
2018-03-26T04:45:02.757Z,1000.7
2018-03-26T04:46:04.152Z,1000.8
2018-03-26T04:47:05.546Z,1000.7
2018-03-26T04:48:06.928Z,1000.7
2018-03-26T04:49:08.324Z,1000.8
2018-03-26T04:50:09.713Z,1000.8
2018-03-26T04:51:11.098Z,1000.8
2018-03-26T04:52:12.492Z,1000.8
2018-03-26T04:53:13.875Z,1000.8
2018-03-26T04:54:15.261Z,1000.8
2018-03-26T04:55:16.645Z,1000.8
2018-03-26T04:56:18.033Z,1000.8
2018-03-26T04:57:19.416Z,1000.8
2018-03-26T04:58:20.803Z,1000.8
2018-03-26T04:59:22.191Z,1000.8
2018-03-26T05:00:23.577Z,1000.9
2018-03-26T05:01:24.961Z,1000.9
2018-03-26T05:02:26.347Z,1000.9
2018-03-26T05:03:27.733Z,1000.9
2018-03-26T05:04:29.123Z,1000.9
2018-03-26T05:05:30.511Z,1000.9
2018-03-26T05:06:31.900Z,1000.9
2018-03-26T05:07:33.284Z,1000.9
2018-03-26T05:08:34.665Z,1001.0
2018-03-26T05:09:36.086Z,1001.0
2018-03-26T05:10:37.471Z,1001.0
2018-03-26T05:11:38.858Z,1001.0
2018-03-26T05:12:40.244Z,1001.1
2018-03-26T05:13:41.635Z,1001.0
2018-03-26T05:14:43.023Z,1001.0
2018-03-26T05:15:44.411Z,1001.1
2018-03-26T05:16:45.800Z,1001.0
2018-03-26T05:17:47.188Z,1001.0
2018-03-26T05:18:48.576Z,1001.0
2018-03-26T05:19:49.972Z,1001.1
2018-03-26T05:20:51.354Z,1001.1
2018-03-26T05:21:52.740Z,1001.1
2018-03-26T05:22:54.125Z,1001.1
2018-03-26T05:23:55.515Z,1001.1
2018-03-26T05:24:56.904Z,1001.1
2018-03-26T05:25:58.296Z,1001.2
2018-03-26T05:26:59.682Z,1001.2
2018-03-26T05:28:01.069Z,1001.2
2018-03-26T05:29:02.461Z,1001.2
2018-03-26T05:30:03.845Z,1001.2
2018-03-26T05:31:05.266Z,1001.2
2018-03-26T05:32:06.621Z,1001.3
2018-03-26T05:33:08.009Z,1001.2
2018-03-26T05:34:09.403Z,1001.3
2018-03-26T05:35:10.787Z,1001.3
2018-03-26T05:36:12.180Z,1001.3
2018-03-26T05:37:13.562Z,1001.3
2018-03-26T05:38:14.950Z,1001.3
2018-03-26T05:39:16.338Z,1001.3
2018-03-26T05:40:17.724Z,1001.3
2018-03-26T05:41:19.113Z,1001.4
2018-03-26T05:42:20.502Z,1001.4
2018-03-26T05:43:21.890Z,1001.4
2018-03-26T05:44:23.278Z,1001.4
2018-03-26T05:45:24.665Z,1001.4
2018-03-26T05:46:26.053Z,1001.4
2018-03-26T05:47:27.443Z,1001.4
2018-03-26T05:48:28.837Z,1001.4
2018-03-26T05:49:30.222Z,1001.5
2018-03-26T05:50:31.617Z,1001.4
2018-03-26T05:51:32.999Z,1001.3
2018-03-26T05:52:34.406Z,1001.4
2018-03-26T05:53:35.791Z,1001.4
2018-03-26T05:54:37.181Z,1001.4
2018-03-26T05:55:38.572Z,1001.4
2018-03-26T05:56:39.960Z,1001.5
2018-03-26T05:57:41.432Z,1001.5
2018-03-26T05:58:42.820Z,1001.5
2018-03-26T05:59:44.217Z,1001.5
2018-03-26T06:00:45.606Z,1001.6
2018-03-26T06:01:46.995Z,1001.6
2018-03-26T06:02:48.386Z,1001.6
2018-03-26T06:03:49.780Z,1001.6
2018-03-26T06:04:51.168Z,1001.6
2018-03-26T06:05:52.552Z,1001.6
2018-03-26T06:06:53.950Z,1001.6
2018-03-26T06:07:55.346Z,1001.6
2018-03-26T06:08:56.731Z,1001.7
2018-03-26T06:09:58.117Z,1001.7
2018-03-26T06:10:59.519Z,1001.7
2018-03-26T06:12:00.905Z,1001.8
2018-03-26T06:13:02.303Z,1001.8
2018-03-26T06:14:03.707Z,1001.8
2018-03-26T06:15:05.093Z,1001.7
2018-03-26T06:16:06.482Z,1001.7
2018-03-26T06:17:07.874Z,1001.8
2018-03-26T06:18:09.265Z,1001.8
2018-03-26T06:19:10.653Z,1001.8
2018-03-26T06:20:12.040Z,1001.8
2018-03-26T06:21:13.431Z,1001.8
2018-03-26T06:22:14.819Z,1001.9
2018-03-26T06:23:16.212Z,1001.9
2018-03-26T06:24:17.600Z,1001.9
2018-03-26T06:25:18.992Z,1001.9
2018-03-26T06:26:20.380Z,1001.9
2018-03-26T06:27:21.771Z,1002.0
2018-03-26T06:28:23.160Z,1002.0
2018-03-26T06:29:24.552Z,1002.0
2018-03-26T06:30:25.950Z,1002.0
2018-03-26T06:31:27.337Z,1002.0
2018-03-26T06:32:28.723Z,1002.0
2018-03-26T06:33:30.112Z,1002.1
2018-03-26T06:34:31.505Z,1002.1
2018-03-26T06:35:32.895Z,1002.0
2018-03-26T06:36:34.283Z,1002.1
2018-03-26T06:37:35.674Z,1002.1
2018-03-26T06:38:37.071Z,1002.1
2018-03-26T06:39:38.464Z,1002.1
2018-03-26T06:40:39.856Z,1002.1
2018-03-26T06:41:41.245Z,1002.1
2018-03-26T06:42:42.634Z,1002.0
2018-03-26T06:43:44.028Z,1002.1
2018-03-26T06:44:45.417Z,1002.1
2018-03-26T06:45:46.831Z,1002.1
2018-03-26T06:46:48.277Z,1002.1
2018-03-26T06:47:49.665Z,1002.1
2018-03-26T06:48:51.057Z,1002.1
2018-03-26T06:49:52.462Z,1002.1
2018-03-26T06:50:53.832Z,1002.1
2018-03-26T06:51:55.222Z,1002.1
2018-03-26T06:52:56.616Z,1002.2
2018-03-26T06:53:57.999Z,1002.2
2018-03-26T06:54:59.421Z,1002.2
2018-03-26T06:56:00.778Z,1002.1
2018-03-26T06:57:02.170Z,1002.2
2018-03-26T06:58:03.558Z,1002.2
2018-03-26T06:59:04.950Z,1002.2
2018-03-26T07:00:06.336Z,1002.3
2018-03-26T07:01:07.730Z,1002.3
2018-03-26T07:02:09.116Z,1002.3
2018-03-26T07:03:10.508Z,1002.3
2018-03-26T07:04:11.901Z,1002.4
2018-03-26T07:05:13.297Z,1002.4
2018-03-26T07:06:14.695Z,1002.4
2018-03-26T07:07:16.084Z,1002.4
2018-03-26T07:08:17.475Z,1002.4
2018-03-26T07:09:18.867Z,1002.4
2018-03-26T07:10:20.257Z,1002.3
2018-03-26T07:11:21.647Z,1002.4
2018-03-26T07:12:23.105Z,1002.4
2018-03-26T07:13:24.429Z,1002.4
2018-03-26T07:14:25.822Z,1002.4
2018-03-26T07:15:27.215Z,1002.4
2018-03-26T07:16:28.602Z,1002.5
2018-03-26T07:17:29.993Z,1002.5
2018-03-26T07:18:31.383Z,1002.5
2018-03-26T07:19:32.772Z,1002.4
2018-03-26T07:20:34.162Z,1002.4
2018-03-26T07:21:35.576Z,1002.5
2018-03-26T07:22:36.954Z,1002.5
2018-03-26T07:23:38.349Z,1002.5
2018-03-26T07:24:39.736Z,1002.5
2018-03-26T07:25:41.126Z,1002.5
2018-03-26T07:26:42.516Z,1002.5
2018-03-26T07:27:43.918Z,1002.5
2018-03-26T07:28:45.309Z,1002.5
2018-03-26T07:29:46.704Z,1002.5
2018-03-26T07:30:48.093Z,1002.6
2018-03-26T07:31:49.491Z,1002.6
2018-03-26T07:32:50.876Z,1002.6
2018-03-26T07:33:52.353Z,1002.6
2018-03-26T07:34:53.755Z,1002.6
2018-03-26T07:35:55.148Z,1002.6
2018-03-26T07:36:56.541Z,1002.7
2018-03-26T07:37:57.930Z,1002.6
2018-03-26T07:38:59.322Z,1002.7
2018-03-26T07:40:00.712Z,1002.7
2018-03-26T07:41:02.103Z,1002.7
2018-03-26T07:42:03.511Z,1002.7
2018-03-26T07:43:04.904Z,1002.7
2018-03-26T07:44:06.297Z,1002.7
2018-03-26T07:45:07.687Z,1002.7
2018-03-26T07:46:09.078Z,1002.7
2018-03-26T07:47:10.471Z,1002.7
2018-03-26T07:48:11.856Z,1002.8
2018-03-26T07:49:13.252Z,1002.8
2018-03-26T07:50:14.647Z,1002.8
2018-03-26T07:51:16.040Z,1002.8
2018-03-26T07:52:17.440Z,1002.8
2018-03-26T07:53:18.871Z,1002.8
2018-03-26T07:54:20.258Z,1002.8
2018-03-26T07:55:21.650Z,1002.8
2018-03-26T07:56:23.043Z,1002.8
2018-03-26T07:57:24.464Z,1002.8
2018-03-26T07:58:25.858Z,1002.8
2018-03-26T07:59:27.243Z,1002.8
2018-03-26T08:00:28.658Z,1002.8
2018-03-26T08:01:30.056Z,1002.8
2018-03-26T08:02:31.450Z,1002.8
2018-03-26T08:03:32.844Z,1002.9
2018-03-26T08:04:34.285Z,1002.9
2018-03-26T08:05:35.667Z,1002.9
2018-03-26T08:06:37.057Z,1002.9
2018-03-26T08:07:38.445Z,1002.9
2018-03-26T08:08:39.835Z,1002.9
2018-03-26T08:09:41.306Z,1002.9
2018-03-26T08:10:42.698Z,1002.9
2018-03-26T08:11:44.119Z,1003.0
2018-03-26T08:12:45.522Z,1003.0
2018-03-26T08:13:46.914Z,1002.9
2018-03-26T08:14:48.302Z,1003.0
2018-03-26T08:15:49.693Z,1002.9
2018-03-26T08:16:51.138Z,1003.0
2018-03-26T08:17:52.481Z,1003.0
2018-03-26T08:18:53.917Z,1003.0
2018-03-26T08:19:55.349Z,1003.0
2018-03-26T08:20:56.746Z,1003.1
2018-03-26T08:21:58.214Z,1003.0
2018-03-26T08:22:59.634Z,1003.0
2018-03-26T08:24:01.027Z,1003.1
2018-03-26T08:25:02.421Z,1003.0
2018-03-26T08:26:03.822Z,1003.1
2018-03-26T08:27:05.215Z,1003.1
2018-03-26T08:28:06.607Z,1003.0
2018-03-26T08:29:08.007Z,1003.1
2018-03-26T08:30:09.402Z,1003.1
2018-03-26T08:31:10.798Z,1003.1
2018-03-26T08:32:12.193Z,1003.1
2018-03-26T08:33:13.585Z,1003.1
2018-03-26T08:34:14.989Z,1003.1
2018-03-26T08:35:16.382Z,1003.1
2018-03-26T08:36:17.773Z,1003.0
2018-03-26T08:37:19.165Z,1003.0
2018-03-26T08:38:20.568Z,1003.1
2018-03-26T08:39:21.957Z,1003.1
2018-03-26T08:40:23.351Z,1003.1
2018-03-26T08:41:24.746Z,1003.1
2018-03-26T08:42:26.184Z,1003.1
2018-03-26T08:43:27.531Z,1003.1
2018-03-26T08:44:28.923Z,1003.1
2018-03-26T08:45:30.312Z,1003.1
2018-03-26T08:46:31.706Z,1003.2
2018-03-26T08:47:33.107Z,1003.2
2018-03-26T08:48:34.494Z,1003.2
2018-03-26T08:49:35.886Z,1003.2
2018-03-26T08:50:37.277Z,1003.2
2018-03-26T08:51:38.668Z,1003.2
2018-03-26T08:52:40.065Z,1003.2
2018-03-26T08:53:41.458Z,1003.2
2018-03-26T08:54:42.852Z,1003.2
2018-03-26T08:55:44.316Z,1003.2
2018-03-26T08:56:45.711Z,1003.2
2018-03-26T08:57:47.102Z,1003.1
2018-03-26T08:58:48.493Z,1003.1
2018-03-26T08:59:49.889Z,1003.2
2018-03-26T09:00:51.286Z,1003.2
2018-03-26T09:01:52.684Z,1003.2
2018-03-26T09:02:54.179Z,1003.2
2018-03-26T09:03:55.606Z,1003.2
2018-03-26T09:04:56.998Z,1003.2
2018-03-26T09:05:58.390Z,1003.2
2018-03-26T09:06:59.817Z,1003.2
2018-03-26T09:08:01.183Z,1003.2
2018-03-26T09:09:02.698Z,1003.1
2018-03-26T09:10:04.141Z,1003.2
2018-03-26T09:11:05.531Z,1003.1
2018-03-26T09:12:06.926Z,1003.2
2018-03-26T09:13:08.320Z,1003.2
2018-03-26T09:14:09.714Z,1003.2
2018-03-26T09:15:11.113Z,1003.2
2018-03-26T09:16:12.512Z,1003.2
2018-03-26T09:17:13.915Z,1003.3
2018-03-26T09:18:15.308Z,1003.2
2018-03-26T09:19:16.706Z,1003.3
2018-03-26T09:20:18.108Z,1003.2
2018-03-26T09:21:19.552Z,1003.3
2018-03-26T09:22:20.950Z,1003.2
2018-03-26T09:23:22.351Z,1003.3
2018-03-26T09:24:23.748Z,1003.3
2018-03-26T09:25:25.147Z,1003.2
2018-03-26T09:26:26.544Z,1003.3
2018-03-26T09:27:27.948Z,1003.3
2018-03-26T09:28:29.348Z,1003.3
2018-03-26T09:29:30.752Z,1003.3
2018-03-26T09:30:32.155Z,1003.2
2018-03-26T09:31:33.556Z,1003.3
2018-03-26T09:32:34.965Z,1003.3
2018-03-26T09:33:36.359Z,1003.3
2018-03-26T09:34:37.766Z,1003.2
2018-03-26T09:35:39.168Z,1003.2
2018-03-26T09:36:40.574Z,1003.2
2018-03-26T09:37:41.983Z,1003.2
2018-03-26T09:38:43.390Z,1003.2
2018-03-26T09:39:44.788Z,1003.2
2018-03-26T09:40:46.193Z,1003.2
2018-03-26T09:41:47.597Z,1003.2
2018-03-26T09:42:49.008Z,1003.2
2018-03-26T09:43:50.412Z,1003.2
2018-03-26T09:44:51.816Z,1003.2
2018-03-26T09:45:53.222Z,1003.2
2018-03-26T09:46:54.626Z,1003.2
2018-03-26T09:47:56.028Z,1003.2
2018-03-26T09:48:57.435Z,1003.2
2018-03-26T09:49:58.844Z,1003.2
2018-03-26T09:51:00.250Z,1003.2
2018-03-26T09:52:01.659Z,1003.2
2018-03-26T09:53:03.068Z,1003.2
2018-03-26T09:54:04.472Z,1003.2
2018-03-26T09:55:05.927Z,1003.1
2018-03-26T09:56:07.340Z,1003.2
2018-03-26T09:57:08.742Z,1003.2
2018-03-26T09:58:10.149Z,1003.2
2018-03-26T09:59:11.551Z,1003.2
2018-03-26T10:00:13.046Z,1003.2
2018-03-26T10:01:14.453Z,1003.2
2018-03-26T10:02:15.850Z,1003.1
2018-03-26T10:03:17.253Z,1003.2
2018-03-26T10:04:18.709Z,1003.1
2018-03-26T10:05:20.059Z,1003.1
2018-03-26T10:06:21.461Z,1003.2
2018-03-26T10:07:22.865Z,1003.2
2018-03-26T10:08:24.265Z,1003.2
2018-03-26T10:09:25.671Z,1003.2
2018-03-26T10:10:27.077Z,1003.2
2018-03-26T10:11:28.481Z,1003.2
2018-03-26T10:12:29.885Z,1003.3
2018-03-26T10:13:31.291Z,1003.2
2018-03-26T10:14:32.700Z,1003.2
2018-03-26T10:15:34.104Z,1003.2
2018-03-26T10:16:35.506Z,1003.2
2018-03-26T10:17:36.914Z,1003.3
2018-03-26T10:18:38.320Z,1003.2
2018-03-26T10:19:39.727Z,1003.2
2018-03-26T10:20:41.132Z,1003.3
2018-03-26T10:21:42.539Z,1003.2
2018-03-26T10:22:43.939Z,1003.3
2018-03-26T10:23:45.402Z,1003.2
2018-03-26T10:24:46.749Z,1003.3
2018-03-26T10:25:48.145Z,1003.3
2018-03-26T10:26:49.551Z,1003.2
2018-03-26T10:27:50.951Z,1003.2
2018-03-26T10:28:52.355Z,1003.2
2018-03-26T10:29:53.753Z,1003.2
2018-03-26T10:30:55.157Z,1003.2
2018-03-26T10:31:56.563Z,1003.2
2018-03-26T10:32:57.960Z,1003.2
2018-03-26T10:33:59.363Z,1003.2
2018-03-26T10:35:00.767Z,1003.2
2018-03-26T10:36:02.171Z,1003.1
2018-03-26T10:37:03.574Z,1003.2
2018-03-26T10:38:04.975Z,1003.2
2018-03-26T10:39:06.377Z,1003.2
2018-03-26T10:40:07.785Z,1003.1
2018-03-26T10:41:09.278Z,1003.1
2018-03-26T10:42:10.684Z,1003.1
2018-03-26T10:43:12.089Z,1003.2
2018-03-26T10:44:13.491Z,1003.1
2018-03-26T10:45:14.890Z,1003.1
2018-03-26T10:46:16.291Z,1003.1
2018-03-26T10:47:17.692Z,1003.1
2018-03-26T10:48:19.103Z,1003.1
2018-03-26T10:49:20.499Z,1003.2
2018-03-26T10:50:21.904Z,1003.1
2018-03-26T10:51:23.306Z,1003.2
2018-03-26T10:52:24.706Z,1003.1
2018-03-26T10:53:26.197Z,1003.1
2018-03-26T10:54:28.166Z,1003.1
2018-03-26T10:55:29.569Z,1003.0
2018-03-26T10:56:30.973Z,1003.1
2018-03-26T10:57:32.374Z,1003.1
2018-03-26T10:58:33.774Z,1003.2
2018-03-26T10:59:35.169Z,1003.2
2018-03-26T11:00:36.568Z,1003.1
2018-03-26T11:01:37.974Z,1003.1
2018-03-26T11:02:39.381Z,1003.1
2018-03-26T11:03:40.810Z,1003.2
2018-03-26T11:04:42.189Z,1003.1
2018-03-26T11:05:43.630Z,1003.1
2018-03-26T11:06:44.985Z,1003.1
2018-03-26T11:07:46.386Z,1003.1
2018-03-26T11:08:47.785Z,1003.1
2018-03-26T11:09:49.185Z,1003.1
2018-03-26T11:10:50.589Z,1003.2
2018-03-26T11:11:51.990Z,1003.2
2018-03-26T11:12:53.391Z,1003.2
2018-03-26T11:13:54.794Z,1003.2
2018-03-26T11:14:56.198Z,1003.2
2018-03-26T11:15:57.607Z,1003.2
2018-03-26T11:16:59.013Z,1003.2
2018-03-26T11:18:00.414Z,1003.3
2018-03-26T11:19:01.814Z,1003.3
2018-03-26T11:20:03.217Z,1003.2
2018-03-26T11:21:04.624Z,1003.3
2018-03-26T11:22:06.024Z,1003.3
2018-03-26T11:23:07.429Z,1003.3
2018-03-26T11:24:08.829Z,1003.3
2018-03-26T11:25:10.230Z,1003.2
2018-03-26T11:26:11.696Z,1003.3
2018-03-26T11:27:13.097Z,1003.4
2018-03-26T11:28:14.500Z,1003.3
2018-03-26T11:29:15.897Z,1003.3
2018-03-26T11:30:17.297Z,1003.3
2018-03-26T11:31:18.714Z,1003.4
2018-03-26T11:32:20.120Z,1003.3
2018-03-26T11:33:21.531Z,1003.3
2018-03-26T11:34:22.933Z,1003.3
2018-03-26T11:35:24.333Z,1003.2
2018-03-26T11:36:25.797Z,1003.2
2018-03-26T11:37:27.135Z,1003.2
2018-03-26T11:38:28.534Z,1003.3
2018-03-26T11:39:29.940Z,1003.3
2018-03-26T11:40:31.344Z,1003.3
2018-03-26T11:41:32.741Z,1003.1
2018-03-26T11:42:34.145Z,1003.1
2018-03-26T11:43:35.545Z,1003.2
2018-03-26T11:44:36.940Z,1003.1
2018-03-26T11:45:38.342Z,1003.2
2018-03-26T11:46:39.744Z,1003.2
2018-03-26T11:47:41.146Z,1003.2
2018-03-26T11:48:42.544Z,1003.2
2018-03-26T11:49:43.984Z,1003.3
2018-03-26T11:50:45.343Z,1003.3
2018-03-26T11:51:46.740Z,1003.3
2018-03-26T11:52:48.143Z,1003.2
2018-03-26T11:53:49.544Z,1003.2
2018-03-26T11:54:50.946Z,1003.2
2018-03-26T11:55:52.349Z,1003.2
2018-03-26T11:56:53.765Z,1003.2
2018-03-26T11:57:55.168Z,1003.2
2018-03-26T11:58:56.572Z,1003.2
2018-03-26T11:59:57.971Z,1003.2
2018-03-26T12:00:59.371Z,1003.3
2018-03-26T12:02:00.773Z,1003.2
2018-03-26T12:03:02.174Z,1003.2
2018-03-26T12:04:03.572Z,1003.2
2018-03-26T12:05:04.974Z,1003.3
2018-03-26T12:06:06.373Z,1003.2
2018-03-26T12:07:07.856Z,1003.2
2018-03-26T12:08:09.268Z,1003.2
2018-03-26T12:09:10.674Z,1003.2
2018-03-26T12:10:12.141Z,1003.2
2018-03-26T12:11:13.598Z,1003.2
2018-03-26T12:12:14.997Z,1003.3
2018-03-26T12:13:16.460Z,1003.3
2018-03-26T12:14:17.860Z,1003.2
2018-03-26T12:15:19.268Z,1003.2
2018-03-26T12:16:20.669Z,1003.2
2018-03-26T12:17:22.069Z,1003.2
2018-03-26T12:18:23.469Z,1003.2
2018-03-26T12:19:24.903Z,1003.3
2018-03-26T12:20:26.379Z,1003.3
2018-03-26T12:21:27.772Z,1003.2
2018-03-26T12:22:29.363Z,1003.3
2018-03-26T12:23:30.948Z,1003.3
2018-03-26T12:24:32.337Z,1003.2
2018-03-26T12:25:33.760Z,1003.3
2018-03-26T12:26:35.164Z,1003.2
2018-03-26T12:27:36.563Z,1003.3
2018-03-26T12:28:37.964Z,1003.3
2018-03-26T12:29:39.367Z,1003.3
2018-03-26T12:30:40.777Z,1003.2
2018-03-26T12:31:42.172Z,1003.2
2018-03-26T12:32:43.567Z,1003.2
2018-03-26T12:33:44.965Z,1003.2
2018-03-26T12:34:46.366Z,1003.2
2018-03-26T12:35:47.770Z,1003.2
2018-03-26T12:36:49.169Z,1003.2
2018-03-26T12:37:50.565Z,1003.2
2018-03-26T12:38:51.962Z,1003.2
2018-03-26T12:39:53.423Z,1003.2
2018-03-26T12:40:54.765Z,1003.2
2018-03-26T12:41:56.168Z,1003.2
2018-03-26T12:42:57.562Z,1003.3
2018-03-26T12:43:58.966Z,1003.3
2018-03-26T12:45:00.371Z,1003.2
2018-03-26T12:46:01.766Z,1003.2
2018-03-26T12:47:03.169Z,1003.2
2018-03-26T12:48:04.570Z,1003.2
2018-03-26T12:49:05.972Z,1003.2
2018-03-26T12:50:07.366Z,1003.3